createdAt,value
2018-02-07T00:02:10.971Z,16.92
2018-02-07T00:04:38.557Z,16.62
2018-02-07T00:07:06.214Z,17.62
2018-02-07T00:09:33.802Z,17.87
2018-02-07T00:12:01.387Z,17.50
2018-02-07T00:14:29.218Z,16.37
2018-02-07T00:16:56.838Z,17.20
2018-02-07T00:19:24.494Z,16.87
2018-02-07T00:21:52.079Z,16.37
2018-02-07T00:24:19.658Z,17.40
2018-02-07T00:26:47.243Z,17.77
2018-02-07T00:29:14.824Z,19.23
2018-02-07T00:31:42.503Z,18.05
2018-02-07T00:34:10.168Z,19.87
2018-02-07T00:36:38.595Z,16.77
2018-02-07T00:39:07.198Z,18.12
2018-02-07T00:41:34.868Z,18.77
2018-02-07T00:44:02.438Z,17.87
2018-02-07T00:46:30.027Z,19.90
2018-02-07T00:48:57.675Z,18.33
2018-02-07T00:51:25.314Z,21.05
2018-02-07T00:53:52.950Z,19.58
2018-02-07T00:56:20.534Z,17.92
2018-02-07T00:58:48.118Z,18.90
2018-02-07T01:01:15.786Z,18.48
2018-02-07T01:03:43.485Z,18.30
2018-02-07T01:06:11.148Z,21.73
2018-02-07T01:08:38.746Z,20.48
2018-02-07T01:11:06.444Z,20.98
2018-02-07T01:13:34.069Z,22.05
2018-02-07T01:16:01.792Z,17.75
2018-02-07T01:18:29.379Z,20.40
2018-02-07T01:20:56.999Z,20.30
2018-02-07T01:23:24.584Z,19.65
2018-02-07T01:25:52.214Z,19.45
2018-02-07T01:28:19.806Z,19.87
2018-02-07T01:30:47.400Z,20.98
2018-02-07T01:33:14.987Z,22.08
2018-02-07T01:35:42.579Z,22.80
2018-02-07T01:38:10.164Z,20.80
2018-02-07T01:40:37.776Z,20.80
2018-02-07T01:43:05.475Z,21.17
2018-02-07T01:45:33.103Z,18.90
2018-02-07T01:48:00.768Z,22.73
2018-02-07T01:50:28.394Z,20.48
2018-02-07T01:52:56.016Z,24.90
2018-02-07T01:55:23.807Z,21.35
2018-02-07T01:57:51.531Z,23.70
2018-02-07T02:00:19.204Z,22.23
2018-02-07T02:02:46.951Z,22.60
2018-02-07T02:05:14.567Z,22.87
2018-02-07T02:07:42.271Z,24.80
2018-02-07T02:10:09.979Z,24.50
2018-02-07T02:12:37.567Z,22.10
2018-02-07T02:15:05.164Z,20.67
2018-02-07T02:17:32.794Z,22.45
2018-02-07T02:20:00.382Z,23.27
2018-02-07T02:22:28.010Z,23.35
2018-02-07T02:24:55.663Z,23.70
2018-02-07T02:27:23.242Z,22.20
2018-02-07T02:29:50.864Z,22.55
2018-02-07T02:32:18.446Z,22.85
2018-02-07T02:34:46.063Z,22.70
2018-02-07T02:37:14.554Z,24.25
2018-02-07T02:39:42.175Z,23.83
2018-02-07T02:42:09.758Z,25.50
2018-02-07T02:44:37.347Z,23.10
2018-02-07T02:47:04.937Z,24.58
2018-02-07T02:49:32.551Z,24.23
2018-02-07T02:52:00.132Z,24.70
2018-02-07T02:54:27.766Z,24.10
2018-02-07T02:56:55.382Z,25.10
2018-02-07T02:59:22.966Z,24.70
2018-02-07T03:01:51.504Z,23.55
2018-02-07T03:04:19.143Z,24.27
2018-02-07T03:06:46.806Z,27.58
2018-02-07T03:09:14.390Z,22.48
2018-02-07T03:11:42.023Z,25.08
2018-02-07T03:14:10.582Z,23.40
2018-02-07T03:16:38.323Z,24.75
2018-02-07T03:19:05.946Z,26.35
2018-02-07T03:21:34.393Z,25.25
2018-02-07T03:24:02.924Z,25.92
2018-02-07T03:26:30.510Z,26.30
2018-02-07T03:28:58.135Z,23.98
2018-02-07T03:31:25.719Z,28.12
2018-02-07T03:33:53.302Z,29.15
2018-02-07T03:36:20.941Z,24.48
2018-02-07T03:38:49.531Z,25.25
2018-02-07T03:41:17.214Z,23.02
2018-02-07T03:43:44.810Z,23.80
2018-02-07T03:46:12.436Z,25.00
2018-02-07T03:48:40.975Z,25.27
2018-02-07T03:51:09.443Z,24.27
2018-02-07T03:53:37.934Z,26.05
2018-02-07T03:56:06.308Z,25.12
2018-02-07T03:58:33.933Z,24.98
2018-02-07T04:01:01.566Z,25.05
2018-02-07T04:03:29.190Z,26.15
2018-02-07T04:05:57.815Z,24.67
2018-02-07T04:08:25.410Z,22.73
2018-02-07T04:10:52.989Z,25.60
2018-02-07T04:13:21.457Z,26.30
2018-02-07T04:15:49.063Z,24.00
2018-02-07T04:18:16.641Z,26.60
2018-02-07T04:20:44.229Z,24.98
2018-02-07T04:23:11.880Z,27.05
2018-02-07T04:25:39.491Z,27.35
2018-02-07T04:28:07.078Z,24.48
2018-02-07T04:30:35.585Z,25.58
2018-02-07T04:33:03.946Z,25.05
2018-02-07T04:35:32.329Z,26.42
2018-02-07T04:38:00.885Z,29.15
2018-02-07T04:40:29.353Z,26.02
2018-02-07T04:42:56.946Z,30.88
2018-02-07T04:45:24.583Z,25.55
2018-02-07T04:47:52.165Z,27.62
2018-02-07T04:50:20.007Z,26.80
2018-02-07T04:52:48.391Z,26.58
2018-02-07T04:55:16.974Z,24.92
2018-02-07T04:57:44.641Z,28.35
2018-02-07T05:00:13.119Z,28.48
2018-02-07T05:02:40.704Z,27.20
2018-02-07T05:05:09.216Z,24.73
2018-02-07T05:07:37.627Z,26.20
2018-02-07T05:10:06.230Z,25.42
2018-02-07T05:12:34.302Z,24.20
2018-02-07T05:15:01.897Z,27.87
2018-02-07T05:17:29.526Z,27.17
2018-02-07T05:19:57.161Z,28.58
2018-02-07T05:22:25.566Z,27.83
2018-02-07T05:24:54.059Z,24.27
2018-02-07T05:27:22.439Z,28.58
2018-02-07T05:29:50.065Z,27.98
2018-02-07T05:32:18.562Z,26.05
2018-02-07T05:34:46.935Z,28.38
2018-02-07T05:37:15.362Z,28.62
2018-02-07T05:39:43.715Z,27.45
2018-02-07T05:42:12.065Z,27.73
2018-02-07T05:44:40.466Z,27.58
2018-02-07T05:47:08.962Z,26.52
2018-02-07T05:49:37.283Z,28.40
2018-02-07T05:52:05.822Z,27.70
2018-02-07T05:54:34.726Z,26.52
2018-02-07T05:57:03.059Z,26.77
2018-02-07T05:59:31.502Z,27.52
2018-02-07T06:01:59.990Z,26.33
2018-02-07T06:04:27.627Z,29.80
2018-02-07T06:06:55.231Z,28.00
2018-02-07T06:09:22.846Z,26.00
2018-02-07T06:11:50.462Z,28.60
2018-02-07T06:14:18.058Z,27.87
2018-02-07T06:16:45.683Z,27.08
2018-02-07T06:19:13.318Z,27.55
2018-02-07T06:21:40.938Z,27.00
2018-02-07T06:24:08.534Z,27.58
2018-02-07T06:26:37.063Z,27.25
2018-02-07T06:29:05.418Z,28.23
2018-02-07T06:31:33.050Z,28.17
2018-02-07T06:34:01.635Z,26.00
2018-02-07T06:36:30.007Z,27.48
2018-02-07T06:38:58.484Z,29.75
2018-02-07T06:41:26.070Z,31.35
2018-02-07T06:43:53.660Z,28.17
2018-02-07T06:46:21.382Z,29.17
2018-02-07T06:48:48.966Z,25.50
2018-02-07T06:51:17.270Z,30.98
2018-02-07T06:53:45.060Z,31.58
2018-02-07T06:56:12.655Z,30.55
2018-02-07T06:58:40.282Z,30.17
2018-02-07T07:01:08.699Z,27.73
2018-02-07T07:03:36.753Z,29.02
2018-02-07T07:06:04.490Z,29.67
2018-02-07T07:08:32.111Z,34.50
2018-02-07T07:11:00.205Z,30.20
2018-02-07T07:13:27.812Z,30.40
2018-02-07T07:15:56.035Z,32.65
2018-02-07T07:18:23.677Z,32.25
2018-02-07T07:20:51.262Z,31.80
2018-02-07T07:23:18.925Z,31.48
2018-02-07T07:25:46.515Z,32.08
2018-02-07T07:28:14.114Z,31.52
2018-02-07T07:30:41.704Z,31.92
2018-02-07T07:33:10.189Z,31.08
2018-02-07T07:35:37.907Z,29.27
2018-02-07T07:38:05.495Z,33.58
2018-02-07T07:40:33.168Z,30.60
2018-02-07T07:43:00.753Z,32.33
2018-02-07T07:45:29.067Z,30.52
2018-02-07T07:47:56.646Z,32.72
2018-02-07T07:50:25.246Z,32.63
2018-02-07T07:52:53.694Z,31.02
2018-02-07T07:55:21.358Z,32.03
2018-02-07T07:57:48.947Z,31.85
2018-02-07T08:00:16.587Z,32.70
2018-02-07T08:02:44.162Z,29.58
2018-02-07T08:05:11.786Z,32.45
2018-02-07T08:07:39.402Z,30.73
2018-02-07T08:10:07.951Z,33.65
2018-02-07T08:12:36.234Z,34.30
2018-02-07T08:15:03.820Z,31.83
2018-02-07T08:17:31.403Z,34.97
2018-02-07T08:19:59.687Z,35.40
2018-02-07T08:22:28.014Z,35.33
2018-02-07T08:24:56.475Z,33.92
2018-02-07T08:27:24.107Z,34.78
2018-02-07T08:29:51.747Z,36.03
2018-02-07T08:32:20.299Z,35.75
2018-02-07T08:34:48.703Z,38.50
2018-02-07T08:37:17.151Z,37.72
2018-02-07T08:39:45.559Z,35.85
2018-02-07T08:42:14.019Z,38.97
2018-02-07T08:44:42.575Z,38.25
2018-02-07T08:47:10.935Z,38.50
2018-02-07T08:49:40.546Z,39.35
2018-02-07T08:52:09.107Z,39.22
2018-02-07T08:54:36.758Z,38.40
2018-02-07T08:57:05.477Z,40.42
2018-02-07T08:59:33.062Z,40.60
2018-02-07T09:02:00.752Z,40.47
2018-02-07T09:04:28.411Z,40.20
2018-02-07T09:06:56.075Z,39.20
2018-02-07T09:09:23.783Z,36.05
2018-02-07T09:11:51.403Z,36.88
2018-02-07T09:14:19.036Z,39.88
2018-02-07T09:16:46.610Z,40.10
2018-02-07T09:19:15.102Z,40.92
2018-02-07T09:21:43.472Z,40.17
2018-02-07T09:24:11.835Z,40.10
2018-02-07T09:26:40.130Z,40.95
2018-02-07T09:29:07.714Z,42.30
2018-02-07T09:31:35.380Z,40.60
2018-02-07T09:34:03.019Z,40.77
2018-02-07T09:36:31.615Z,42.15
2018-02-07T09:38:59.270Z,38.53
2018-02-07T09:41:27.627Z,37.63
2018-02-07T09:43:55.248Z,40.60
2018-02-07T09:46:22.825Z,42.63
2018-02-07T09:48:50.415Z,35.83
2018-02-07T09:51:18.099Z,37.00
2018-02-07T09:53:45.707Z,42.13
2018-02-07T09:56:14.183Z,37.17
2018-02-07T09:58:41.808Z,40.15
2018-02-07T10:01:09.391Z,39.60
2018-02-07T10:03:37.067Z,36.65
2018-02-07T10:06:05.856Z,38.13
2018-02-07T10:08:33.453Z,41.25
2018-02-07T10:11:01.155Z,37.60
2018-02-07T10:13:28.747Z,40.05
2018-02-07T10:15:56.362Z,40.40
2018-02-07T10:18:24.863Z,39.15
2018-02-07T10:20:52.452Z,38.75
2018-02-07T10:23:20.039Z,38.80
2018-02-07T10:25:47.627Z,39.77
2018-02-07T10:28:15.207Z,37.37
2018-02-07T10:30:43.719Z,37.13
2018-02-07T10:33:12.071Z,39.57
2018-02-07T10:35:40.538Z,40.30
2018-02-07T10:38:09.028Z,38.20
2018-02-07T10:40:36.611Z,39.63
2018-02-07T10:43:04.227Z,37.37
2018-02-07T10:45:31.846Z,39.07
2018-02-07T10:47:59.462Z,39.10
2018-02-07T10:50:27.045Z,39.42
2018-02-07T10:52:55.430Z,40.57
2018-02-07T10:55:23.739Z,38.57
2018-02-07T10:57:51.307Z,36.70
2018-02-07T11:00:19.705Z,39.90
2018-02-07T11:02:47.277Z,40.00
2018-02-07T11:05:15.855Z,37.80
2018-02-07T11:07:43.523Z,41.20
2018-02-07T11:10:11.820Z,38.90
2018-02-07T11:12:39.398Z,42.00
2018-02-07T11:15:06.980Z,38.57
2018-02-07T11:17:34.558Z,38.00
2018-02-07T11:20:02.160Z,38.00
2018-02-07T11:22:30.635Z,38.70
2018-02-07T11:24:58.211Z,36.63
2018-02-07T11:27:25.785Z,37.60
2018-02-07T11:29:53.363Z,39.83
2018-02-07T11:32:20.942Z,36.50
2018-02-07T11:34:48.562Z,38.60
2018-02-07T11:37:16.967Z,38.40
2018-02-07T11:39:44.581Z,36.10
2018-02-07T11:42:12.154Z,38.20
2018-02-07T11:44:39.734Z,37.23
2018-02-07T11:47:07.306Z,34.43
2018-02-07T11:49:34.886Z,36.70
2018-02-07T11:52:03.370Z,34.20
2018-02-07T11:54:31.645Z,33.40
2018-02-07T11:56:59.223Z,32.87
2018-02-07T11:59:27.697Z,32.90
2018-02-07T12:01:56.010Z,31.77
2018-02-07T12:04:23.590Z,29.27
2018-02-07T12:06:51.204Z,28.57
2018-02-07T12:09:18.778Z,24.67
2018-02-07T12:11:47.295Z,28.17
2018-02-07T12:14:14.867Z,28.30
2018-02-07T12:16:43.343Z,30.57
2018-02-07T12:19:10.990Z,27.23
2018-02-07T12:21:38.579Z,26.30
2018-02-07T12:24:06.158Z,26.13
2018-02-07T12:26:34.511Z,26.97
2018-02-07T12:29:02.118Z,24.87
2018-02-07T12:31:29.714Z,23.77
2018-02-07T12:33:58.149Z,25.13
2018-02-07T12:36:25.725Z,21.13
2018-02-07T12:38:53.303Z,24.77
2018-02-07T12:41:20.954Z,25.40
2018-02-07T12:43:48.532Z,23.80
2018-02-07T12:46:17.038Z,24.53
2018-02-07T12:48:45.470Z,24.77
2018-02-07T12:51:13.878Z,23.10
2018-02-07T12:53:42.258Z,24.43
2018-02-07T12:56:09.874Z,20.70
2018-02-07T12:58:38.405Z,24.07
2018-02-07T13:01:05.985Z,20.77
2018-02-07T13:03:33.566Z,20.77
2018-02-07T13:06:01.156Z,21.03
2018-02-07T13:08:28.870Z,20.93
2018-02-07T13:10:57.351Z,22.63
2018-02-07T13:13:24.959Z,21.47
2018-02-07T13:15:52.530Z,19.80
2018-02-07T13:18:20.146Z,24.13
2018-02-07T13:20:47.726Z,24.50
2018-02-07T13:23:15.330Z,22.40
2018-02-07T13:25:43.799Z,22.80
2018-02-07T13:28:11.375Z,22.10
2018-02-07T13:30:39.047Z,22.13
2018-02-07T13:33:07.551Z,24.57
2018-02-07T13:35:35.857Z,22.03
2018-02-07T13:38:03.439Z,24.17
2018-02-07T13:40:31.015Z,24.10
2018-02-07T13:42:58.594Z,25.20
2018-02-07T13:45:27.068Z,24.30
2018-02-07T13:47:54.648Z,24.93
2018-02-07T13:50:22.255Z,27.10
2018-02-07T13:52:49.833Z,28.50
2018-02-07T13:55:17.415Z,31.03
2018-02-07T13:57:44.995Z,25.93
2018-02-07T14:00:12.572Z,28.60
2018-02-07T14:02:40.150Z,28.10
2018-02-07T14:05:07.722Z,24.83
2018-02-07T14:07:35.295Z,23.47
2018-02-07T14:10:02.927Z,25.88
2018-02-07T14:12:30.532Z,22.93
2018-02-07T14:14:58.109Z,27.23
2018-02-07T14:17:25.762Z,23.53
2018-02-07T14:19:54.115Z,20.97
2018-02-07T14:22:21.686Z,21.47
2018-02-07T14:24:49.263Z,23.67
2018-02-07T14:27:16.930Z,25.70
2018-02-07T14:29:44.511Z,24.10
2018-02-07T14:32:12.086Z,24.50
2018-02-07T14:34:39.671Z,25.33
2018-02-07T14:37:07.257Z,27.73
2018-02-07T14:39:34.889Z,26.00
2018-02-07T14:42:02.466Z,25.13
2018-02-07T14:44:30.862Z,26.63
2018-02-07T14:46:58.442Z,22.57
2018-02-07T14:49:26.027Z,24.70
2018-02-07T14:51:54.380Z,24.27
2018-02-07T14:54:21.959Z,24.23
2018-02-07T14:56:49.534Z,23.27
2018-02-07T14:59:17.147Z,22.93
2018-02-07T15:01:45.622Z,24.13
2018-02-07T15:04:13.198Z,23.17
2018-02-07T15:06:41.093Z,20.97
2018-02-07T15:09:08.734Z,22.80
2018-02-07T15:11:37.259Z,21.23
2018-02-07T15:14:04.842Z,20.70
2018-02-07T15:16:32.420Z,21.27
2018-02-07T15:19:00.106Z,18.80
2018-02-07T15:21:28.596Z,20.13
2018-02-07T15:23:56.750Z,19.97
2018-02-07T15:26:24.422Z,19.30
2018-02-07T15:28:52.002Z,21.50
2018-02-07T15:31:19.583Z,22.17
2018-02-07T15:33:47.160Z,20.27
2018-02-07T15:36:14.766Z,21.20
2018-02-07T15:38:42.339Z,22.53
2018-02-07T15:41:09.928Z,19.90
2018-02-07T15:43:37.726Z,19.70
2018-02-07T15:46:05.301Z,21.67
2018-02-07T15:48:32.875Z,20.60
2018-02-07T15:51:01.370Z,23.67
2018-02-07T15:53:28.954Z,21.90
2018-02-07T15:55:56.547Z,22.45
2018-02-07T15:58:24.138Z,20.55
2018-02-07T16:00:51.730Z,21.73
2018-02-07T16:03:20.213Z,22.33
2018-02-07T16:05:47.859Z,23.52
2018-02-07T16:08:15.518Z,19.80
2018-02-07T16:10:43.715Z,21.23
2018-02-07T16:13:11.306Z,24.92
2018-02-07T16:15:38.914Z,24.52
2018-02-07T16:18:06.499Z,26.33
2018-02-07T16:20:34.137Z,25.80
2018-02-07T16:23:01.799Z,31.25
2018-02-07T16:25:29.399Z,30.60
2018-02-07T16:27:56.994Z,26.37
2018-02-07T16:30:24.590Z,25.60
2018-02-07T16:32:52.177Z,27.23
2018-02-07T16:35:19.771Z,24.65
2018-02-07T16:37:47.362Z,25.15
2018-02-07T16:40:15.275Z,24.83
2018-02-07T16:42:42.866Z,24.67
2018-02-07T16:45:10.914Z,26.27
2018-02-07T16:47:38.545Z,26.45
2018-02-07T16:50:06.130Z,26.85
2018-02-07T16:52:33.860Z,27.90
2018-02-07T16:55:02.226Z,24.37
2018-02-07T16:57:29.818Z,27.65
2018-02-07T16:59:57.444Z,26.92
2018-02-07T17:02:25.054Z,26.40
2018-02-07T17:04:52.644Z,28.65
2018-02-07T17:07:20.245Z,31.48
2018-02-07T17:09:47.914Z,28.85
2018-02-07T17:12:15.588Z,32.15
2018-02-07T17:14:43.229Z,32.10
2018-02-07T17:17:10.819Z,30.83
2018-02-07T17:19:38.454Z,30.30
2018-02-07T17:22:06.797Z,30.88
2018-02-07T17:24:34.386Z,31.67
2018-02-07T17:27:02.755Z,33.63
2018-02-07T17:29:31.250Z,35.78
2018-02-07T17:31:58.953Z,33.60
2018-02-07T17:34:26.542Z,34.85
2018-02-07T17:36:54.858Z,37.53
2018-02-07T17:39:22.446Z,35.83
2018-02-07T17:41:50.034Z,37.90
2018-02-07T17:44:17.739Z,39.47
2018-02-07T17:46:45.335Z,42.00
2018-02-07T17:49:12.972Z,38.75
2018-02-07T17:51:40.666Z,37.63
2018-02-07T17:54:08.295Z,37.42
2018-02-07T17:56:36.790Z,38.67
2018-02-07T17:59:04.391Z,38.38
2018-02-07T18:01:32.003Z,38.72
2018-02-07T18:03:59.594Z,38.38
2018-02-07T18:06:27.218Z,37.65
2018-02-07T18:08:54.923Z,38.22
2018-02-07T18:11:22.586Z,39.08
2018-02-07T18:13:50.174Z,42.67
2018-02-07T18:16:17.810Z,40.40
2018-02-07T18:18:45.470Z,40.88
2018-02-07T18:21:13.765Z,42.00
2018-02-07T18:23:42.131Z,40.53
2018-02-07T18:26:10.098Z,39.75
2018-02-07T18:28:37.699Z,38.72
2018-02-07T18:31:05.339Z,40.50
2018-02-07T18:33:32.939Z,42.40
2018-02-07T18:36:00.580Z,43.10
2018-02-07T18:38:28.191Z,41.22
2018-02-07T18:40:55.807Z,42.92
2018-02-07T18:43:23.398Z,44.78
2018-02-07T18:45:51.099Z,43.13
2018-02-07T18:48:19.183Z,40.88
2018-02-07T18:50:46.797Z,43.97
2018-02-07T18:53:15.030Z,43.42
2018-02-07T18:55:42.643Z,46.33
2018-02-07T18:58:11.151Z,42.15
2018-02-07T19:00:39.039Z,41.70
2018-02-07T19:03:06.643Z,43.92
2018-02-07T19:05:34.314Z,43.15
2018-02-07T19:08:01.955Z,46.60
2018-02-07T19:10:29.587Z,42.70
2018-02-07T19:12:57.236Z,44.00
2018-02-07T19:15:24.830Z,43.03
2018-02-07T19:17:52.561Z,43.45
2018-02-07T19:20:20.196Z,45.38
2018-02-07T19:22:48.010Z,44.63
2018-02-07T19:25:15.622Z,48.42
2018-02-07T19:27:43.230Z,44.92
2018-02-07T19:30:10.869Z,43.50
2018-02-07T19:32:39.314Z,44.53
2018-02-07T19:35:07.633Z,42.20
2018-02-07T19:37:35.224Z,43.55
2018-02-07T19:40:02.810Z,44.10
2018-02-07T19:42:30.487Z,44.83
2018-02-07T19:44:59.394Z,44.92
2018-02-07T19:47:26.986Z,44.42
2018-02-07T19:49:54.571Z,43.22
2018-02-07T19:52:22.162Z,42.15
2018-02-07T19:54:49.826Z,43.20
2018-02-07T19:57:17.483Z,43.70
2018-02-07T19:59:45.127Z,42.72
2018-02-07T20:02:12.743Z,43.30
2018-02-07T20:04:40.374Z,43.85
2018-02-07T20:07:08.700Z,40.67
2018-02-07T20:09:37.030Z,44.05
2018-02-07T20:12:05.349Z,44.58
2018-02-07T20:14:32.938Z,42.22
2018-02-07T20:17:01.253Z,44.42
2018-02-07T20:19:29.419Z,44.13
2018-02-07T20:21:57.035Z,47.72
2018-02-07T20:24:25.604Z,45.80
2018-02-07T20:26:56.203Z,43.53
2018-02-07T20:29:30.799Z,41.58
2018-02-07T20:31:58.652Z,47.72
2018-02-07T20:34:27.439Z,45.05
2018-02-07T20:36:55.188Z,45.25
2018-02-07T20:39:26.592Z,44.70
2018-02-07T20:41:54.213Z,45.53
2018-02-07T20:44:21.818Z,43.78
2018-02-07T20:46:49.478Z,42.83
2018-02-07T20:49:17.143Z,43.25
2018-02-07T20:51:45.167Z,46.95
2018-02-07T20:54:12.955Z,44.80
2018-02-07T20:56:40.714Z,40.55
2018-02-07T20:59:08.316Z,45.58
2018-02-07T21:01:36.861Z,46.15
2018-02-07T21:04:05.330Z,45.47
2018-02-07T21:06:32.987Z,45.50
2018-02-07T21:09:00.603Z,47.70
2018-02-07T21:11:28.297Z,45.78
2018-02-07T21:13:55.935Z,47.38
2018-02-07T21:16:23.559Z,44.50
2018-02-07T21:18:51.595Z,45.08
2018-02-07T21:21:19.255Z,50.12
2018-02-07T21:23:46.874Z,47.13
2018-02-07T21:26:15.470Z,44.47
2018-02-07T21:28:44.097Z,48.38
2018-02-07T21:31:11.716Z,45.08
2018-02-07T21:33:39.428Z,44.78
2018-02-07T21:36:07.042Z,50.22
2018-02-07T21:38:35.621Z,48.30
2018-02-07T21:41:03.217Z,46.88
2018-02-07T21:43:32.074Z,46.65
2018-02-07T21:45:59.740Z,46.28
2018-02-07T21:48:27.403Z,45.65
2018-02-07T21:50:54.987Z,46.22
2018-02-07T21:53:22.732Z,46.50
2018-02-07T21:55:51.186Z,44.03
2018-02-07T21:58:18.770Z,45.78
2018-02-07T22:00:46.381Z,43.70
2018-02-07T22:03:13.966Z,45.42
2018-02-07T22:05:41.654Z,45.45
2018-02-07T22:08:09.518Z,44.30
2018-02-07T22:10:37.112Z,44.20
2018-02-07T22:13:04.695Z,47.28
2018-02-07T22:15:32.794Z,46.53
2018-02-07T22:18:00.486Z,45.08
2018-02-07T22:20:28.111Z,44.25
2018-02-07T22:22:55.702Z,43.80
2018-02-07T22:25:23.290Z,41.58
2018-02-07T22:27:50.883Z,43.53
2018-02-07T22:30:18.479Z,46.17
2018-02-07T22:32:46.071Z,53.40
2018-02-07T22:35:13.666Z,46.83
2018-02-07T22:37:41.261Z,55.53
2018-02-07T22:40:08.886Z,55.92
2018-02-07T22:42:36.470Z,51.28
2018-02-07T22:45:04.162Z,44.78
2018-02-07T22:47:31.750Z,43.67
2018-02-07T22:49:59.334Z,43.10
2018-02-07T22:52:26.914Z,42.35
2018-02-07T22:54:54.499Z,42.13
2018-02-07T22:57:22.091Z,42.17
2018-02-07T22:59:49.677Z,47.10
2018-02-07T23:02:17.270Z,38.53
2018-02-07T23:04:44.950Z,48.50
2018-02-07T23:07:12.583Z,43.55
2018-02-07T23:09:40.166Z,40.85
2018-02-07T23:12:07.769Z,41.75
2018-02-07T23:14:36.067Z,40.42
2018-02-07T23:17:04.437Z,42.33
2018-02-07T23:19:32.799Z,46.60
2018-02-07T23:22:01.260Z,48.45
2018-02-07T23:24:29.643Z,44.60
2018-02-07T23:26:58.126Z,44.95
2018-02-07T23:29:25.799Z,41.13
2018-02-07T23:31:54.289Z,44.10
2018-02-07T23:34:22.648Z,42.03
2018-02-07T23:36:50.907Z,40.92
2018-02-07T23:39:18.495Z,40.33
2018-02-07T23:41:46.970Z,41.22
2018-02-07T23:44:14.558Z,40.50
2018-02-07T23:46:42.155Z,39.88
2018-02-07T23:49:09.746Z,40.55
2018-02-07T23:51:37.379Z,40.47
2018-02-07T23:54:04.959Z,45.22
2018-02-07T23:56:32.541Z,44.60
2018-02-07T23:59:00.127Z,40.90
